sensor_id;sensor_type;location;lat;lon;timestamp;P1;durP1;ratioP1;P2;durP2;ratioP2
7049;SDS011;22263;52.260;10.548;2023-08-31T00:01:22;0.30;;;0.30;;
7049;SDS011;22263;52.260;10.548;2023-08-31T00:03:52;0.30;;;0.30;;
7049;SDS011;22263;52.260;10.548;2023-08-31T00:06:22;0.30;;;0.30;;
7049;SDS011;22263;52.260;10.548;2023-08-31T00:08:55;0.30;;;0.30;;
7049;SDS011;22263;52.260;10.548;2023-08-31T00:11:24;0.30;;;0.30;;
7049;SDS011;22263;52.260;10.548;2023-08-31T00:13:54;0.22;;;0.22;;
7049;SDS011;22263;52.260;10.548;2023-08-31T00:16:24;0.25;;;0.25;;
7049;SDS011;22263;52.260;10.548;2023-08-31T00:18:55;0.30;;;0.30;;
7049;SDS011;22263;52.260;10.548;2023-08-31T00:21:26;0.30;;;0.30;;
7049;SDS011;22263;52.260;10.548;2023-08-31T00:23:59;0.30;;;0.30;;
7049;SDS011;22263;52.260;10.548;2023-08-31T00:26:29;0.30;;;0.30;;
7049;SDS011;22263;52.260;10.548;2023-08-31T00:29:00;0.30;;;0.30;;
7049;SDS011;22263;52.260;10.548;2023-08-31T00:31:29;0.30;;;0.30;;
7049;SDS011;22263;52.260;10.548;2023-08-31T00:34:00;0.30;;;0.30;;
7049;SDS011;22263;52.260;10.548;2023-08-31T00:36:30;0.30;;;0.30;;
7049;SDS011;22263;52.260;10.548;2023-08-31T00:39:05;0.30;;;0.30;;
7049;SDS011;22263;52.260;10.548;2023-08-31T00:41:38;0.30;;;0.30;;
7049;SDS011;22263;52.260;10.548;2023-08-31T00:44:08;0.30;;;0.30;;
7049;SDS011;22263;52.260;10.548;2023-08-31T00:46:40;0.30;;;0.30;;
7049;SDS011;22263;52.260;10.548;2023-08-31T00:49:11;0.30;;;0.30;;
7049;SDS011;22263;52.260;10.548;2023-08-31T00:51:41;0.30;;;0.30;;
7049;SDS011;22263;52.260;10.548;2023-08-31T00:54:18;0.30;;;0.30;;
7049;SDS011;22263;52.260;10.548;2023-08-31T00:56:51;0.30;;;0.30;;
7049;SDS011;22263;52.260;10.548;2023-08-31T00:59:24;0.30;;;0.30;;
7049;SDS011;22263;52.260;10.548;2023-08-31T01:01:56;0.30;;;0.30;;
7049;SDS011;22263;52.260;10.548;2023-08-31T01:04:38;0.30;;;0.30;;
7049;SDS011;22263;52.260;10.548;2023-08-31T01:07:19;0.30;;;0.30;;
7049;SDS011;22263;52.260;10.548;2023-08-31T01:10:01;0.20;;;0.20;;
7049;SDS011;22263;52.260;10.548;2023-08-31T01:12:37;0.30;;;0.30;;
7049;SDS011;22263;52.260;10.548;2023-08-31T01:15:13;0.40;;;0.40;;
7049;SDS011;22263;52.260;10.548;2023-08-31T01:17:46;0.30;;;0.30;;
7049;SDS011;22263;52.260;10.548;2023-08-31T01:20:19;0.40;;;0.40;;
7049;SDS011;22263;52.260;10.548;2023-08-31T01:22:57;0.30;;;0.30;;
7049;SDS011;22263;52.260;10.548;2023-08-31T01:25:37;0.40;;;0.40;;
7049;SDS011;22263;52.260;10.548;2023-08-31T01:28:09;0.30;;;0.30;;
7049;SDS011;22263;52.260;10.548;2023-08-31T01:30:40;0.40;;;0.40;;
7049;SDS011;22263;52.260;10.548;2023-08-31T01:33:11;0.30;;;0.30;;
7049;SDS011;22263;52.260;10.548;2023-08-31T01:35:43;0.40;;;0.40;;
7049;SDS011;22263;52.260;10.548;2023-08-31T01:38:17;0.40;;;0.40;;
7049;SDS011;22263;52.260;10.548;2023-08-31T01:40:54;0.30;;;0.30;;
7049;SDS011;22263;52.260;10.548;2023-08-31T01:43:29;0.30;;;0.30;;
7049;SDS011;22263;52.260;10.548;2023-08-31T01:46:01;0.30;;;0.30;;
7049;SDS011;22263;52.260;10.548;2023-08-31T01:48:32;0.30;;;0.30;;
7049;SDS011;22263;52.260;10.548;2023-08-31T01:51:08;0.40;;;0.40;;
7049;SDS011;22263;52.260;10.548;2023-08-31T01:53:39;0.30;;;0.30;;
7049;SDS011;22263;52.260;10.548;2023-08-31T01:56:11;0.43;;;0.43;;
7049;SDS011;22263;52.260;10.548;2023-08-31T01:58:42;0.30;;;0.30;;
7049;SDS011;22263;52.260;10.548;2023-08-31T02:01:11;0.22;;;0.22;;
7049;SDS011;22263;52.260;10.548;2023-08-31T02:03:41;0.30;;;0.30;;
7049;SDS011;22263;52.260;10.548;2023-08-31T02:06:11;0.30;;;0.30;;
7049;SDS011;22263;52.260;10.548;2023-08-31T02:08:41;0.30;;;0.30;;
7049;SDS011;22263;52.260;10.548;2023-08-31T02:11:19;0.30;;;0.30;;
7049;SDS011;22263;52.260;10.548;2023-08-31T02:13:49;0.30;;;0.30;;
7049;SDS011;22263;52.260;10.548;2023-08-31T02:16:19;0.30;;;0.30;;
7049;SDS011;22263;52.260;10.548;2023-08-31T02:18:49;0.38;;;0.38;;
7049;SDS011;22263;52.260;10.548;2023-08-31T02:21:18;0.30;;;0.30;;
7049;SDS011;22263;52.260;10.548;2023-08-31T02:23:52;0.20;;;0.20;;
7049;SDS011;22263;52.260;10.548;2023-08-31T02:26:24;0.30;;;0.30;;
7049;SDS011;22263;52.260;10.548;2023-08-31T02:28:54;0.30;;;0.30;;
7049;SDS011;22263;52.260;10.548;2023-08-31T02:31:25;0.30;;;0.30;;
7049;SDS011;22263;52.260;10.548;2023-08-31T02:33:55;0.30;;;0.30;;
7049;SDS011;22263;52.260;10.548;2023-08-31T02:36:25;0.40;;;0.40;;
7049;SDS011;22263;52.260;10.548;2023-08-31T02:38:55;0.40;;;0.40;;
7049;SDS011;22263;52.260;10.548;2023-08-31T02:41:28;0.40;;;0.40;;
7049;SDS011;22263;52.260;10.548;2023-08-31T02:43:58;0.40;;;0.40;;
7049;SDS011;22263;52.260;10.548;2023-08-31T02:46:28;0.22;;;0.22;;
7049;SDS011;22263;52.260;10.548;2023-08-31T02:48:57;0.40;;;0.40;;
7049;SDS011;22263;52.260;10.548;2023-08-31T02:51:27;0.40;;;0.40;;
7049;SDS011;22263;52.260;10.548;2023-08-31T02:53:57;0.43;;;0.43;;
7049;SDS011;22263;52.260;10.548;2023-08-31T02:56:29;0.30;;;0.30;;
7049;SDS011;22263;52.260;10.548;2023-08-31T02:58:59;0.25;;;0.25;;
7049;SDS011;22263;52.260;10.548;2023-08-31T03:01:29;0.40;;;0.40;;
7049;SDS011;22263;52.260;10.548;2023-08-31T03:03:59;0.30;;;0.30;;
7049;SDS011;22263;52.260;10.548;2023-08-31T03:06:29;0.30;;;0.30;;
7049;SDS011;22263;52.260;10.548;2023-08-31T03:09:01;0.30;;;0.30;;
7049;SDS011;22263;52.260;10.548;2023-08-31T03:11:34;0.30;;;0.30;;
7049;SDS011;22263;52.260;10.548;2023-08-31T03:14:03;0.30;;;0.30;;
7049;SDS011;22263;52.260;10.548;2023-08-31T03:16:36;0.40;;;0.40;;
7049;SDS011;22263;52.260;10.548;2023-08-31T03:19:05;0.30;;;0.30;;
7049;SDS011;22263;52.260;10.548;2023-08-31T03:21:35;0.40;;;0.40;;
7049;SDS011;22263;52.260;10.548;2023-08-31T03:24:05;0.40;;;0.40;;
7049;SDS011;22263;52.260;10.548;2023-08-31T03:26:37;0.32;;;0.32;;
7049;SDS011;22263;52.260;10.548;2023-08-31T03:29:07;0.30;;;0.30;;
7049;SDS011;22263;52.260;10.548;2023-08-31T03:31:37;0.40;;;0.40;;
7049;SDS011;22263;52.260;10.548;2023-08-31T03:34:07;0.30;;;0.30;;
7049;SDS011;22263;52.260;10.548;2023-08-31T03:36:37;0.32;;;0.32;;
7049;SDS011;22263;52.260;10.548;2023-08-31T03:39:07;0.20;;;0.20;;
7049;SDS011;22263;52.260;10.548;2023-08-31T03:41:39;0.30;;;0.30;;
7049;SDS011;22263;52.260;10.548;2023-08-31T03:44:09;0.30;;;0.30;;
7049;SDS011;22263;52.260;10.548;2023-08-31T03:46:40;0.47;;;0.47;;
7049;SDS011;22263;52.260;10.548;2023-08-31T03:49:09;0.30;;;0.30;;
7049;SDS011;22263;52.260;10.548;2023-08-31T03:51:39;0.30;;;0.30;;
7049;SDS011;22263;52.260;10.548;2023-08-31T03:54:10;0.40;;;0.40;;
7049;SDS011;22263;52.260;10.548;2023-08-31T03:56:43;0.30;;;0.30;;
7049;SDS011;22263;52.260;10.548;2023-08-31T03:59:13;0.40;;;0.40;;
7049;SDS011;22263;52.260;10.548;2023-08-31T04:01:45;0.32;;;0.32;;
7049;SDS011;22263;52.260;10.548;2023-08-31T04:04:15;0.30;;;0.30;;
7049;SDS011;22263;52.260;10.548;2023-08-31T04:06:45;0.30;;;0.30;;
7049;SDS011;22263;52.260;10.548;2023-08-31T04:09:15;0.30;;;0.30;;
7049;SDS011;22263;52.260;10.548;2023-08-31T04:11:48;0.30;;;0.30;;
7049;SDS011;22263;52.260;10.548;2023-08-31T04:14:18;0.30;;;0.30;;
7049;SDS011;22263;52.260;10.548;2023-08-31T04:16:47;0.30;;;0.30;;
7049;SDS011;22263;52.260;10.548;2023-08-31T04:19:17;0.40;;;0.40;;
7049;SDS011;22263;52.260;10.548;2023-08-31T04:21:47;0.35;;;0.35;;
7049;SDS011;22263;52.260;10.548;2023-08-31T04:24:17;0.30;;;0.30;;
7049;SDS011;22263;52.260;10.548;2023-08-31T04:26:49;0.30;;;0.30;;
7049;SDS011;22263;52.260;10.548;2023-08-31T04:29:19;0.40;;;0.40;;
7049;SDS011;22263;52.260;10.548;2023-08-31T04:31:49;0.40;;;0.40;;
7049;SDS011;22263;52.260;10.548;2023-08-31T04:34:19;0.30;;;0.30;;
7049;SDS011;22263;52.260;10.548;2023-08-31T04:36:48;0.47;;;0.47;;
7049;SDS011;22263;52.260;10.548;2023-08-31T04:39:19;0.50;;;0.50;;
7049;SDS011;22263;52.260;10.548;2023-08-31T04:41:51;0.40;;;0.40;;
7049;SDS011;22263;52.260;10.548;2023-08-31T04:44:21;0.30;;;0.30;;
7049;SDS011;22263;52.260;10.548;2023-08-31T04:46:50;0.30;;;0.30;;
7049;SDS011;22263;52.260;10.548;2023-08-31T04:49:21;0.30;;;0.30;;
7049;SDS011;22263;52.260;10.548;2023-08-31T04:51:51;0.30;;;0.30;;
7049;SDS011;22263;52.260;10.548;2023-08-31T04:54:21;0.20;;;0.20;;
7049;SDS011;22263;52.260;10.548;2023-08-31T04:56:53;0.30;;;0.30;;
7049;SDS011;22263;52.260;10.548;2023-08-31T04:59:23;0.30;;;0.30;;
7049;SDS011;22263;52.260;10.548;2023-08-31T05:01:53;0.35;;;0.35;;
7049;SDS011;22263;52.260;10.548;2023-08-31T05:04:23;0.40;;;0.40;;
7049;SDS011;22263;52.260;10.548;2023-08-31T05:06:55;0.30;;;0.30;;
7049;SDS011;22263;52.260;10.548;2023-08-31T05:09:25;0.30;;;0.30;;
7049;SDS011;22263;52.260;10.548;2023-08-31T05:12:01;0.40;;;0.40;;
7049;SDS011;22263;52.260;10.548;2023-08-31T05:14:32;0.50;;;0.50;;
7049;SDS011;22263;52.260;10.548;2023-08-31T05:17:04;0.40;;;0.40;;
7049;SDS011;22263;52.260;10.548;2023-08-31T05:19:33;0.40;;;0.40;;
7049;SDS011;22263;52.260;10.548;2023-08-31T05:22:03;0.30;;;0.30;;
7049;SDS011;22263;52.260;10.548;2023-08-31T05:24:33;0.32;;;0.32;;
7049;SDS011;22263;52.260;10.548;2023-08-31T05:27:05;0.40;;;0.40;;
7049;SDS011;22263;52.260;10.548;2023-08-31T05:29:35;0.30;;;0.30;;
7049;SDS011;22263;52.260;10.548;2023-08-31T05:32:05;0.30;;;0.30;;
7049;SDS011;22263;52.260;10.548;2023-08-31T05:34:35;0.40;;;0.40;;
7049;SDS011;22263;52.260;10.548;2023-08-31T05:37:06;0.40;;;0.40;;
7049;SDS011;22263;52.260;10.548;2023-08-31T05:39:36;0.40;;;0.40;;
7049;SDS011;22263;52.260;10.548;2023-08-31T05:42:08;0.30;;;0.30;;
7049;SDS011;22263;52.260;10.548;2023-08-31T05:44:38;0.30;;;0.30;;
7049;SDS011;22263;52.260;10.548;2023-08-31T05:47:08;0.35;;;0.35;;
7049;SDS011;22263;52.260;10.548;2023-08-31T05:49:38;0.30;;;0.30;;
7049;SDS011;22263;52.260;10.548;2023-08-31T05:52:07;0.30;;;0.30;;
7049;SDS011;22263;52.260;10.548;2023-08-31T05:54:37;0.30;;;0.30;;
7049;SDS011;22263;52.260;10.548;2023-08-31T05:57:09;0.32;;;0.32;;
7049;SDS011;22263;52.260;10.548;2023-08-31T05:59:39;0.30;;;0.30;;
7049;SDS011;22263;52.260;10.548;2023-08-31T06:02:09;0.30;;;0.30;;
7049;SDS011;22263;52.260;10.548;2023-08-31T06:04:39;0.40;;;0.40;;
7049;SDS011;22263;52.260;10.548;2023-08-31T06:07:09;0.30;;;0.30;;
7049;SDS011;22263;52.260;10.548;2023-08-31T06:09:39;0.30;;;0.30;;
7049;SDS011;22263;52.260;10.548;2023-08-31T06:12:11;0.30;;;0.30;;
7049;SDS011;22263;52.260;10.548;2023-08-31T06:14:41;0.30;;;0.30;;
7049;SDS011;22263;52.260;10.548;2023-08-31T06:17:10;0.30;;;0.30;;
7049;SDS011;22263;52.260;10.548;2023-08-31T06:19:41;0.30;;;0.30;;
7049;SDS011;22263;52.260;10.548;2023-08-31T06:22:11;0.40;;;0.40;;
7049;SDS011;22263;52.260;10.548;2023-08-31T06:24:41;0.35;;;0.35;;
7049;SDS011;22263;52.260;10.548;2023-08-31T06:27:14;0.40;;;0.40;;
7049;SDS011;22263;52.260;10.548;2023-08-31T06:29:45;0.30;;;0.30;;
7049;SDS011;22263;52.260;10.548;2023-08-31T06:32:15;0.30;;;0.30;;
7049;SDS011;22263;52.260;10.548;2023-08-31T06:34:46;0.30;;;0.30;;
7049;SDS011;22263;52.260;10.548;2023-08-31T06:37:16;0.30;;;0.30;;
7049;SDS011;22263;52.260;10.548;2023-08-31T06:39:47;0.30;;;0.30;;
7049;SDS011;22263;52.260;10.548;2023-08-31T06:42:19;0.30;;;0.30;;
7049;SDS011;22263;52.260;10.548;2023-08-31T06:44:50;0.30;;;0.30;;
7049;SDS011;22263;52.260;10.548;2023-08-31T06:47:22;0.30;;;0.30;;
7049;SDS011;22263;52.260;10.548;2023-08-31T06:49:54;0.30;;;0.30;;
7049;SDS011;22263;52.260;10.548;2023-08-31T06:52:24;0.30;;;0.30;;
7049;SDS011;22263;52.260;10.548;2023-08-31T06:54:58;0.30;;;0.30;;
7049;SDS011;22263;52.260;10.548;2023-08-31T06:57:30;0.30;;;0.30;;
7049;SDS011;22263;52.260;10.548;2023-08-31T07:00:00;0.30;;;0.30;;
7049;SDS011;22263;52.260;10.548;2023-08-31T07:02:30;0.30;;;0.30;;
7049;SDS011;22263;52.260;10.548;2023-08-31T07:05:01;0.30;;;0.30;;
7049;SDS011;22263;52.260;10.548;2023-08-31T07:07:31;0.30;;;0.30;;
7049;SDS011;22263;52.260;10.548;2023-08-31T07:10:01;0.30;;;0.30;;
7049;SDS011;22263;52.260;10.548;2023-08-31T07:12:35;0.30;;;0.30;;
7049;SDS011;22263;52.260;10.548;2023-08-31T07:15:05;0.20;;;0.20;;
7049;SDS011;22263;52.260;10.548;2023-08-31T07:17:35;0.20;;;0.20;;
7049;SDS011;22263;52.260;10.548;2023-08-31T07:20:06;0.20;;;0.20;;
7049;SDS011;22263;52.260;10.548;2023-08-31T07:22:37;0.20;;;0.20;;
7049;SDS011;22263;52.260;10.548;2023-08-31T07:25:07;0.20;;;0.20;;
7049;SDS011;22263;52.260;10.548;2023-08-31T07:27:41;0.25;;;0.25;;
7049;SDS011;22263;52.260;10.548;2023-08-31T07:30:11;0.20;;;0.20;;
7049;SDS011;22263;52.260;10.548;2023-08-31T07:32:40;0.20;;;0.20;;
7049;SDS011;22263;52.260;10.548;2023-08-31T07:35:10;0.30;;;0.30;;
7049;SDS011;22263;52.260;10.548;2023-08-31T07:37:40;0.20;;;0.20;;
7049;SDS011;22263;52.260;10.548;2023-08-31T07:40:10;0.30;;;0.30;;
7049;SDS011;22263;52.260;10.548;2023-08-31T07:42:43;0.20;;;0.20;;
7049;SDS011;22263;52.260;10.548;2023-08-31T07:45:13;0.20;;;0.20;;
7049;SDS011;22263;52.260;10.548;2023-08-31T07:47:42;0.30;;;0.30;;
7049;SDS011;22263;52.260;10.548;2023-08-31T07:50:12;0.20;;;0.20;;
7049;SDS011;22263;52.260;10.548;2023-08-31T07:52:42;0.20;;;0.20;;
7049;SDS011;22263;52.260;10.548;2023-08-31T07:55:12;0.20;;;0.20;;
7049;SDS011;22263;52.260;10.548;2023-08-31T07:57:44;0.20;;;0.20;;
7049;SDS011;22263;52.260;10.548;2023-08-31T08:00:14;0.20;;;0.20;;
7049;SDS011;22263;52.260;10.548;2023-08-31T08:02:45;0.20;;;0.20;;
7049;SDS011;22263;52.260;10.548;2023-08-31T08:05:15;0.17;;;0.17;;
7049;SDS011;22263;52.260;10.548;2023-08-31T08:07:45;0.20;;;0.20;;
7049;SDS011;22263;52.260;10.548;2023-08-31T08:10:15;0.30;;;0.30;;
7049;SDS011;22263;52.260;10.548;2023-08-31T08:12:47;0.30;;;0.30;;
7049;SDS011;22263;52.260;10.548;2023-08-31T08:15:17;0.20;;;0.20;;
7049;SDS011;22263;52.260;10.548;2023-08-31T08:17:47;0.20;;;0.20;;
7049;SDS011;22263;52.260;10.548;2023-08-31T08:20:17;0.20;;;0.20;;
7049;SDS011;22263;52.260;10.548;2023-08-31T08:22:47;0.20;;;0.20;;
7049;SDS011;22263;52.260;10.548;2023-08-31T08:25:18;0.30;;;0.30;;
7049;SDS011;22263;52.260;10.548;2023-08-31T08:27:51;0.20;;;0.20;;
7049;SDS011;22263;52.260;10.548;2023-08-31T08:30:21;0.20;;;0.20;;
7049;SDS011;22263;52.260;10.548;2023-08-31T08:32:51;0.20;;;0.20;;
7049;SDS011;22263;52.260;10.548;2023-08-31T08:35:21;0.20;;;0.20;;
7049;SDS011;22263;52.260;10.548;2023-08-31T08:37:51;0.25;;;0.25;;
7049;SDS011;22263;52.260;10.548;2023-08-31T08:40:21;0.20;;;0.20;;
7049;SDS011;22263;52.260;10.548;2023-08-31T08:42:53;0.20;;;0.20;;
7049;SDS011;22263;52.260;10.548;2023-08-31T08:45:25;0.10;;;0.10;;
7049;SDS011;22263;52.260;10.548;2023-08-31T08:48:00;0.20;;;0.20;;
7049;SDS011;22263;52.260;10.548;2023-08-31T08:50:31;0.20;;;0.20;;
7049;SDS011;22263;52.260;10.548;2023-08-31T08:53:03;0.20;;;0.20;;
7049;SDS011;22263;52.260;10.548;2023-08-31T08:55:34;0.20;;;0.20;;
7049;SDS011;22263;52.260;10.548;2023-08-31T08:58:06;0.20;;;0.20;;
7049;SDS011;22263;52.260;10.548;2023-08-31T09:00:36;0.20;;;0.20;;
7049;SDS011;22263;52.260;10.548;2023-08-31T09:03:07;0.20;;;0.20;;
7049;SDS011;22263;52.260;10.548;2023-08-31T09:05:37;0.20;;;0.20;;
7049;SDS011;22263;52.260;10.548;2023-08-31T09:08:07;0.20;;;0.20;;
7049;SDS011;22263;52.260;10.548;2023-08-31T09:10:40;0.20;;;0.20;;
7049;SDS011;22263;52.260;10.548;2023-08-31T09:13:14;0.30;;;0.30;;
7049;SDS011;22263;52.260;10.548;2023-08-31T09:15:43;0.20;;;0.20;;
7049;SDS011;22263;52.260;10.548;2023-08-31T09:18:15;0.15;;;0.15;;
7049;SDS011;22263;52.260;10.548;2023-08-31T09:20:46;0.30;;;0.30;;
7049;SDS011;22263;52.260;10.548;2023-08-31T09:23:16;0.20;;;0.20;;
7049;SDS011;22263;52.260;10.548;2023-08-31T09:25:47;0.20;;;0.20;;
7049;SDS011;22263;52.260;10.548;2023-08-31T09:28:23;0.20;;;0.20;;
7049;SDS011;22263;52.260;10.548;2023-08-31T09:31:03;0.30;;;0.30;;
7049;SDS011;22263;52.260;10.548;2023-08-31T09:33:35;0.20;;;0.20;;
7049;SDS011;22263;52.260;10.548;2023-08-31T09:36:06;0.10;;;0.10;;
7049;SDS011;22263;52.260;10.548;2023-08-31T09:38:41;0.20;;;0.20;;
7049;SDS011;22263;52.260;10.548;2023-08-31T09:41:11;0.10;;;0.10;;
7049;SDS011;22263;52.260;10.548;2023-08-31T09:43:44;0.20;;;0.20;;
7049;SDS011;22263;52.260;10.548;2023-08-31T09:46:14;0.10;;;0.10;;
7049;SDS011;22263;52.260;10.548;2023-08-31T09:48:44;0.20;;;0.20;;
7049;SDS011;22263;52.260;10.548;2023-08-31T09:51:15;0.20;;;0.20;;
7049;SDS011;22263;52.260;10.548;2023-08-31T09:53:49;0.20;;;0.20;;
7049;SDS011;22263;52.260;10.548;2023-08-31T09:56:23;0.17;;;0.17;;
7049;SDS011;22263;52.260;10.548;2023-08-31T09:58:59;0.10;;;0.10;;
7049;SDS011;22263;52.260;10.548;2023-08-31T10:01:30;0.20;;;0.20;;
7049;SDS011;22263;52.260;10.548;2023-08-31T10:04:00;0.20;;;0.20;;
7049;SDS011;22263;52.260;10.548;2023-08-31T10:06:32;0.10;;;0.10;;
7049;SDS011;22263;52.260;10.548;2023-08-31T10:09:03;0.20;;;0.20;;
7049;SDS011;22263;52.260;10.548;2023-08-31T10:11:33;0.15;;;0.15;;
7049;SDS011;22263;52.260;10.548;2023-08-31T10:14:06;0.20;;;0.20;;
7049;SDS011;22263;52.260;10.548;2023-08-31T10:16:39;0.20;;;0.20;;
7049;SDS011;22263;52.260;10.548;2023-08-31T10:19:09;0.10;;;0.10;;
7049;SDS011;22263;52.260;10.548;2023-08-31T10:21:40;0.10;;;0.10;;
7049;SDS011;22263;52.260;10.548;2023-08-31T10:24:11;0.10;;;0.10;;
7049;SDS011;22263;52.260;10.548;2023-08-31T10:26:40;0.10;;;0.10;;
7049;SDS011;22263;52.260;10.548;2023-08-31T10:32:00;0.10;;;0.10;;
7049;SDS011;22263;52.260;10.548;2023-08-31T10:34:36;0.10;;;0.10;;
7049;SDS011;22263;52.260;10.548;2023-08-31T10:37:19;0.10;;;0.10;;
7049;SDS011;22263;52.260;10.548;2023-08-31T10:39:50;0.20;;;0.20;;
7049;SDS011;22263;52.260;10.548;2023-08-31T10:42:42;0.10;;;0.10;;
7049;SDS011;22263;52.260;10.548;2023-08-31T10:45:16;0.20;;;0.20;;
7049;SDS011;22263;52.260;10.548;2023-08-31T10:47:49;0.20;;;0.20;;
7049;SDS011;22263;52.260;10.548;2023-08-31T10:50:19;0.13;;;0.13;;
7049;SDS011;22263;52.260;10.548;2023-08-31T10:52:50;0.10;;;0.10;;
7049;SDS011;22263;52.260;10.548;2023-08-31T10:55:20;0.10;;;0.10;;
7049;SDS011;22263;52.260;10.548;2023-08-31T10:57:53;0.10;;;0.10;;
7049;SDS011;22263;52.260;10.548;2023-08-31T11:03:23;0.10;;;0.10;;
7049;SDS011;22263;52.260;10.548;2023-08-31T11:05:53;0.10;;;0.10;;
7049;SDS011;22263;52.260;10.548;2023-08-31T11:08:23;0.10;;;0.10;;
7049;SDS011;22263;52.260;10.548;2023-08-31T11:10:54;0.10;;;0.10;;
7049;SDS011;22263;52.260;10.548;2023-08-31T11:13:24;0.10;;;0.10;;
7049;SDS011;22263;52.260;10.548;2023-08-31T11:15:56;0.10;;;0.10;;
7049;SDS011;22263;52.260;10.548;2023-08-31T11:18:26;0.20;;;0.20;;
7049;SDS011;22263;52.260;10.548;2023-08-31T11:20:56;0.10;;;0.10;;
7049;SDS011;22263;52.260;10.548;2023-08-31T11:23:26;0.03;;;0.03;;
7049;SDS011;22263;52.260;10.548;2023-08-31T11:25:56;0.10;;;0.10;;
7049;SDS011;22263;52.260;10.548;2023-08-31T11:28:31;0.10;;;0.10;;
7049;SDS011;22263;52.260;10.548;2023-08-31T11:31:05;0.10;;;0.10;;
7049;SDS011;22263;52.260;10.548;2023-08-31T11:33:34;0.10;;;0.10;;
7049;SDS011;22263;52.260;10.548;2023-08-31T11:36:04;0.10;;;0.10;;
7049;SDS011;22263;52.260;10.548;2023-08-31T11:38:35;0.10;;;0.10;;
7049;SDS011;22263;52.260;10.548;2023-08-31T11:41:05;0.10;;;0.10;;
7049;SDS011;22263;52.260;10.548;2023-08-31T11:43:34;0.10;;;0.10;;
7049;SDS011;22263;52.260;10.548;2023-08-31T11:46:07;0.10;;;0.10;;
7049;SDS011;22263;52.260;10.548;2023-08-31T11:48:38;0.10;;;0.10;;
7049;SDS011;22263;52.260;10.548;2023-08-31T11:51:08;0.00;;;0.00;;
7049;SDS011;22263;52.260;10.548;2023-08-31T11:53:39;0.10;;;0.10;;
7049;SDS011;22263;52.260;10.548;2023-08-31T11:56:09;0.10;;;0.10;;
7049;SDS011;22263;52.260;10.548;2023-08-31T11:58:40;0.10;;;0.10;;
7049;SDS011;22263;52.260;10.548;2023-08-31T12:01:32;0.10;;;0.10;;
7049;SDS011;22263;52.260;10.548;2023-08-31T12:04:09;0.20;;;0.20;;
7049;SDS011;22263;52.260;10.548;2023-08-31T12:06:39;0.10;;;0.10;;
7049;SDS011;22263;52.260;10.548;2023-08-31T12:09:10;0.10;;;0.10;;
7049;SDS011;22263;52.260;10.548;2023-08-31T12:11:40;0.20;;;0.20;;
7049;SDS011;22263;52.260;10.548;2023-08-31T12:14:19;0.10;;;0.10;;
7049;SDS011;22263;52.260;10.548;2023-08-31T12:16:59;0.10;;;0.10;;
7049;SDS011;22263;52.260;10.548;2023-08-31T12:19:31;0.17;;;0.17;;
7049;SDS011;22263;52.260;10.548;2023-08-31T12:22:02;0.17;;;0.17;;
7049;SDS011;22263;52.260;10.548;2023-08-31T12:24:37;0.10;;;0.10;;
7049;SDS011;22263;52.260;10.548;2023-08-31T12:27:08;0.15;;;0.15;;
7049;SDS011;22263;52.260;10.548;2023-08-31T12:29:38;0.15;;;0.15;;
7049;SDS011;22263;52.260;10.548;2023-08-31T12:32:10;0.20;;;0.20;;
7049;SDS011;22263;52.260;10.548;2023-08-31T12:34:40;0.10;;;0.10;;
7049;SDS011;22263;52.260;10.548;2023-08-31T12:37:10;0.20;;;0.20;;
7049;SDS011;22263;52.260;10.548;2023-08-31T12:39:40;0.10;;;0.10;;
7049;SDS011;22263;52.260;10.548;2023-08-31T12:42:12;0.10;;;0.10;;
7049;SDS011;22263;52.260;10.548;2023-08-31T12:44:49;0.10;;;0.10;;
7049;SDS011;22263;52.260;10.548;2023-08-31T12:47:21;0.10;;;0.10;;
7049;SDS011;22263;52.260;10.548;2023-08-31T12:49:51;0.10;;;0.10;;
7049;SDS011;22263;52.260;10.548;2023-08-31T12:52:21;0.10;;;0.10;;
7049;SDS011;22263;52.260;10.548;2023-08-31T12:54:51;0.10;;;0.10;;
7049;SDS011;22263;52.260;10.548;2023-08-31T12:57:21;0.00;;;0.00;;
7049;SDS011;22263;52.260;10.548;2023-08-31T12:59:50;0.10;;;0.10;;
7049;SDS011;22263;52.260;10.548;2023-08-31T13:02:23;0.10;;;0.10;;
7049;SDS011;22263;52.260;10.548;2023-08-31T13:04:53;0.00;;;0.00;;
7049;SDS011;22263;52.260;10.548;2023-08-31T13:07:22;0.10;;;0.10;;
7049;SDS011;22263;52.260;10.548;2023-08-31T13:09:52;0.00;;;0.00;;
7049;SDS011;22263;52.260;10.548;2023-08-31T13:12:22;0.10;;;0.10;;
7049;SDS011;22263;52.260;10.548;2023-08-31T13:14:52;0.10;;;0.10;;
7049;SDS011;22263;52.260;10.548;2023-08-31T13:17:24;0.10;;;0.10;;
7049;SDS011;22263;52.260;10.548;2023-08-31T13:19:55;0.10;;;0.10;;
7049;SDS011;22263;52.260;10.548;2023-08-31T13:22:27;0.10;;;0.10;;
7049;SDS011;22263;52.260;10.548;2023-08-31T13:24:57;0.10;;;0.10;;
7049;SDS011;22263;52.260;10.548;2023-08-31T13:27:27;0.00;;;0.00;;
7049;SDS011;22263;52.260;10.548;2023-08-31T13:29:57;0.10;;;0.10;;
7049;SDS011;22263;52.260;10.548;2023-08-31T13:32:29;0.13;;;0.13;;
7049;SDS011;22263;52.260;10.548;2023-08-31T13:34:59;0.10;;;0.10;;
7049;SDS011;22263;52.260;10.548;2023-08-31T13:37:29;0.10;;;0.10;;
7049;SDS011;22263;52.260;10.548;2023-08-31T13:39:59;0.20;;;0.20;;
7049;SDS011;22263;52.260;10.548;2023-08-31T13:42:33;0.10;;;0.10;;
7049;SDS011;22263;52.260;10.548;2023-08-31T13:45:06;0.10;;;0.10;;
7049;SDS011;22263;52.260;10.548;2023-08-31T13:47:39;0.20;;;0.20;;
7049;SDS011;22263;52.260;10.548;2023-08-31T13:50:13;0.10;;;0.10;;
7049;SDS011;22263;52.260;10.548;2023-08-31T13:52:44;0.17;;;0.17;;
7049;SDS011;22263;52.260;10.548;2023-08-31T13:55:14;0.10;;;0.10;;
7049;SDS011;22263;52.260;10.548;2023-08-31T13:57:44;0.10;;;0.10;;
7049;SDS011;22263;52.260;10.548;2023-08-31T14:00:14;0.20;;;0.20;;
7049;SDS011;22263;52.260;10.548;2023-08-31T14:02:47;0.10;;;0.10;;
7049;SDS011;22263;52.260;10.548;2023-08-31T14:05:17;0.10;;;0.10;;
7049;SDS011;22263;52.260;10.548;2023-08-31T14:07:46;0.10;;;0.10;;
7049;SDS011;22263;52.260;10.548;2023-08-31T14:10:16;0.20;;;0.20;;
7049;SDS011;22263;52.260;10.548;2023-08-31T14:12:46;0.10;;;0.10;;
7049;SDS011;22263;52.260;10.548;2023-08-31T14:15:16;0.20;;;0.20;;
7049;SDS011;22263;52.260;10.548;2023-08-31T14:17:49;0.10;;;0.10;;
7049;SDS011;22263;52.260;10.548;2023-08-31T14:20:20;0.20;;;0.20;;
7049;SDS011;22263;52.260;10.548;2023-08-31T14:22:49;0.20;;;0.20;;
7049;SDS011;22263;52.260;10.548;2023-08-31T14:25:19;0.10;;;0.10;;
7049;SDS011;22263;52.260;10.548;2023-08-31T14:27:50;0.10;;;0.10;;
7049;SDS011;22263;52.260;10.548;2023-08-31T14:30:20;0.20;;;0.20;;
7049;SDS011;22263;52.260;10.548;2023-08-31T14:32:52;0.20;;;0.20;;
7049;SDS011;22263;52.260;10.548;2023-08-31T14:35:22;0.20;;;0.20;;
7049;SDS011;22263;52.260;10.548;2023-08-31T14:37:54;0.10;;;0.10;;
7049;SDS011;22263;52.260;10.548;2023-08-31T14:40:24;0.20;;;0.20;;
7049;SDS011;22263;52.260;10.548;2023-08-31T14:42:54;0.30;;;0.30;;
7049;SDS011;22263;52.260;10.548;2023-08-31T14:45:26;0.22;;;0.22;;
7049;SDS011;22263;52.260;10.548;2023-08-31T14:47:59;0.30;;;0.30;;
7049;SDS011;22263;52.260;10.548;2023-08-31T14:50:30;0.20;;;0.20;;
7049;SDS011;22263;52.260;10.548;2023-08-31T14:53:02;0.20;;;0.20;;
7049;SDS011;22263;52.260;10.548;2023-08-31T14:55:32;0.28;;;0.28;;
7049;SDS011;22263;52.260;10.548;2023-08-31T14:58:03;0.10;;;0.10;;
7049;SDS011;22263;52.260;10.548;2023-08-31T15:00:33;0.30;;;0.30;;
7049;SDS011;22263;52.260;10.548;2023-08-31T15:03:07;0.20;;;0.20;;
7049;SDS011;22263;52.260;10.548;2023-08-31T15:05:37;0.20;;;0.20;;
7049;SDS011;22263;52.260;10.548;2023-08-31T15:08:07;0.20;;;0.20;;
7049;SDS011;22263;52.260;10.548;2023-08-31T15:10:38;0.30;;;0.30;;
7049;SDS011;22263;52.260;10.548;2023-08-31T15:13:08;0.20;;;0.20;;
7049;SDS011;22263;52.260;10.548;2023-08-31T15:15:38;0.20;;;0.20;;
7049;SDS011;22263;52.260;10.548;2023-08-31T15:18:11;0.30;;;0.30;;